Time;durP1;ratioP1;P1;durP2;ratioP2;P2;SDS_P1;SDS_P2;PMS_P1;PMS_P2;Temp;Humidity;BMP_temperature;BMP_pressure;BME280_temperature;BME280_humidity;BME280_pressure;Samples;Min_cycle;Max_cycle;Signal;HPM_P1;HPM_P2
2020/12/02 00:01:02;;;;;;;7.83;7;;;8.3;99.9;;;;;;;;;
2020/12/02 00:02:02;;;;;;;8.97;7.43;;;8.4;99.9;;;;;;;;;
2020/12/02 00:03:02;;;;;;;9.53;7.9;;;8.4;99.9;;;;;;;;;
2020/12/02 00:03:16;;;;;;;9.53;7.9;;;8.4;99.9;;;;;;;;;
2020/12/02 00:04:05;;;;;;;9.73;7.67;;;8.4;99.9;;;;;;;;;
2020/12/02 00:04:13;;;;;;;9.73;7.67;;;8.4;99.9;;;;;;;;;
2020/12/02 00:05:02;;;;;;;10.93;7.8;;;8.5;99.9;;;;;;;;;
2020/12/02 00:05:19;;;;;;;10.93;7.8;;;8.5;99.9;;;;;;;;;
2020/12/02 00:05:29;;;;;;;10.93;7.8;;;8.5;99.9;;;;;;;;;
2020/12/02 00:06:02;;;;;;;11.3;7.93;;;8.5;99.9;;;;;;;;;
2020/12/02 00:06:21;;;;;;;11.3;7.93;;;8.5;99.9;;;;;;;;;
2020/12/02 00:06:26;;;;;;;11.3;7.93;;;8.5;99.9;;;;;;;;;
2020/12/02 00:07:02;;;;;;;9.33;7.73;;;8.5;99.9;;;;;;;;;
2020/12/02 00:07:22;;;;;;;9.33;7.73;;;8.5;99.9;;;;;;;;;
2020/12/02 00:07:32;;;;;;;9.3;7.7;;;8.6;99.9;;;;;;;;;
2020/12/02 00:07:43;;;;;;;9.3;7.7;;;8.6;99.9;;;;;;;;;
2020/12/02 00:08:02;;;;;;;9.3;7.7;;;8.6;99.9;;;;;;;;;
2020/12/02 00:08:13;;;;;;;9.3;7.7;;;8.6;99.9;;;;;;;;;
2020/12/02 00:08:34;;;;;;;8.1;7.23;;;8.6;99.9;;;;;;;;;
2020/12/02 00:08:39;;;;;;;8.1;7.23;;;8.6;99.9;;;;;;;;;
2020/12/02 00:09:02;;;;;;;8.1;7.23;;;8.6;99.9;;;;;;;;;
2020/12/02 00:09:15;;;;;;;8.1;7.23;;;8.6;99.9;;;;;;;;;
2020/12/02 00:09:35;;;;;;;10.03;8.1;;;8.6;99.9;;;;;;;;;
2020/12/02 00:09:46;;;;;;;10.03;8.1;;;8.6;99.9;;;;;;;;;
2020/12/02 00:09:56;;;;;;;10.03;8.1;;;8.6;99.9;;;;;;;;;
2020/12/02 00:10:02;;;;;;;10.03;8.1;;;8.6;99.9;;;;;;;;;
2020/12/02 00:10:21;;;;;;;10.03;8.1;;;8.6;99.9;;;;;;;;;
2020/12/02 00:10:26;;;;;;;10.03;8.1;;;8.6;99.9;;;;;;;;;
2020/12/02 00:10:47;;;;;;;10.1;8.53;;;8.6;99.9;;;;;;;;;
2020/12/02 00:10:57;;;;;;;10.1;8.53;;;8.6;99.9;;;;;;;;;
2020/12/02 00:11:02;;;;;;;10.1;8.53;;;8.6;99.9;;;;;;;;;
2020/12/02 00:11:18;;;;;;;10.1;8.53;;;8.6;99.9;;;;;;;;;
2020/12/02 00:11:28;;;;;;;10.1;8.53;;;8.6;99.9;;;;;;;;;
2020/12/02 00:11:48;;;;;;;10;7.8;;;8.6;99.9;;;;;;;;;
2020/12/02 00:11:59;;;;;;;10;7.8;;;8.6;99.9;;;;;;;;;
2020/12/02 00:12:02;;;;;;;10;7.8;;;8.6;99.9;;;;;;;;;
2020/12/02 00:12:09;;;;;;;10;7.8;;;8.6;99.9;;;;;;;;;
2020/12/02 00:12:14;;;;;;;10;7.8;;;8.6;99.9;;;;;;;;;
2020/12/02 00:12:34;;;;;;;10.57;8.1;;;8.6;99.9;;;;;;;;;
2020/12/02 00:12:39;;;;;;;10.57;8.1;;;8.6;99.9;;;;;;;;;
2020/12/02 00:13:00;;;;;;;10.57;8.1;;;8.6;99.9;;;;;;;;;
2020/12/02 00:13:02;;;;;;;10.57;8.1;;;8.6;99.9;;;;;;;;;
2020/12/02 00:13:10;;;;;;;10.57;8.1;;;8.6;99.9;;;;;;;;;
2020/12/02 00:13:15;;;;;;;10.57;8.1;;;8.6;99.9;;;;;;;;;
2020/12/02 00:13:31;;;;;;;10.57;8.1;;;8.6;99.9;;;;;;;;;
2020/12/02 00:13:41;;;;;;;13.53;8.97;;;8.5;99.9;;;;;;;;;
2020/12/02 00:14:01;;;;;;;13.53;8.97;;;8.5;99.9;;;;;;;;;
2020/12/02 00:14:02;;;;;;;13.53;8.97;;;8.5;99.9;;;;;;;;;
2020/12/02 00:14:12;;;;;;;13.53;8.97;;;8.5;99.9;;;;;;;;;
2020/12/02 00:14:17;;;;;;;13.53;8.97;;;8.5;99.9;;;;;;;;;
2020/12/02 00:14:27;;;;;;;13.53;8.97;;;8.5;99.9;;;;;;;;;
2020/12/02 00:14:48;;;;;;;11.17;8.83;;;8.6;99.9;;;;;;;;;
2020/12/02 00:14:53;;;;;;;11.17;8.83;;;8.6;99.9;;;;;;;;;
2020/12/02 00:15:01;;;;;;;11.17;8.83;;;8.6;99.9;;;;;;;;;
2020/12/02 00:15:13;;;;;;;11.17;8.83;;;8.6;99.9;;;;;;;;;
2020/12/02 00:15:18;;;;;;;11.17;8.83;;;8.6;99.9;;;;;;;;;
2020/12/02 00:15:34;;;;;;;10.53;8.43;;;8.5;99.9;;;;;;;;;
2020/12/02 00:15:44;;;;;;;10.53;8.43;;;8.5;99.9;;;;;;;;;
2020/12/02 00:15:54;;;;;;;10.53;8.43;;;8.5;99.9;;;;;;;;;
2020/12/02 00:16:02;;;;;;;10.53;8.43;;;8.5;99.9;;;;;;;;;
2020/12/02 00:16:15;;;;;;;10.53;8.43;;;8.5;99.9;;;;;;;;;
2020/12/02 00:16:25;;;;;;;10.53;8.43;;;8.5;99.9;;;;;;;;;
2020/12/02 00:16:30;;;;;;;10.53;8.43;;;8.5;99.9;;;;;;;;;
2020/12/02 00:16:40;;;;;;;11.57;8.53;;;8.5;99.9;;;;;;;;;
2020/12/02 00:17:01;;;;;;;11.57;8.53;;;8.5;99.9;;;;;;;;;
2020/12/02 00:17:01;;;;;;;11.57;8.53;;;8.5;99.9;;;;;;;;;
2020/12/02 00:17:06;;;;;;;11.57;8.53;;;8.5;99.9;;;;;;;;;
2020/12/02 00:17:16;;;;;;;11.57;8.53;;;8.5;99.9;;;;;;;;;
2020/12/02 00:17:31;;;;;;;11.57;8.53;;;8.5;99.9;;;;;;;;;
2020/12/02 00:17:47;;;;;;;13.33;8.33;;;8.4;99.9;;;;;;;;;
2020/12/02 00:17:57;;;;;;;13.33;8.33;;;8.4;99.9;;;;;;;;;
2020/12/02 00:18:02;;;;;;;13.33;8.33;;;8.4;99.9;;;;;;;;;
2020/12/02 00:18:07;;;;;;;13.33;8.33;;;8.4;99.9;;;;;;;;;
2020/12/02 00:18:17;;;;;;;13.33;8.33;;;8.4;99.9;;;;;;;;;
2020/12/02 00:18:33;;;;;;;13.33;8.33;;;8.4;99.9;;;;;;;;;
2020/12/02 00:18:43;;;;;;;13.3;9.57;;;8.4;99.9;;;;;;;;;
2020/12/02 00:18:53;;;;;;;13.3;9.57;;;8.4;99.9;;;;;;;;;
2020/12/02 00:19:02;;;;;;;13.3;9.57;;;8.4;99.9;;;;;;;;;
2020/12/02 00:19:14;;;;;;;13.3;9.57;;;8.4;99.9;;;;;;;;;
2020/12/02 00:19:14;;;;;;;13.3;9.57;;;8.4;99.9;;;;;;;;;
2020/12/02 00:19:29;;;;;;;13.3;9.57;;;8.4;99.9;;;;;;;;;
2020/12/02 00:19:44;;;;;;;11.65;9.18;;;8.4;99.9;;;;;;;;;
2020/12/02 00:20:02;;;;;;;11.65;9.18;;;8.4;99.9;;;;;;;;;
2020/12/02 00:20:05;;;;;;;11.65;9.18;;;8.4;99.9;;;;;;;;;
2020/12/02 00:20:10;;;;;;;11.65;9.18;;;8.4;99.9;;;;;;;;;
2020/12/02 00:20:15;;;;;;;11.65;9.18;;;8.4;99.9;;;;;;;;;
2020/12/02 00:20:31;;;;;;;11.65;9.18;;;8.4;99.9;;;;;;;;;
2020/12/02 00:20:46;;;;;;;12.43;9.13;;;8.4;99.9;;;;;;;;;
2020/12/02 00:20:56;;;;;;;12.43;9.13;;;8.4;99.9;;;;;;;;;
2020/12/02 00:21:04;;;;;;;12.43;9.13;;;8.4;99.9;;;;;;;;;
2020/12/02 00:21:06;;;;;;;12.43;9.13;;;8.4;99.9;;;;;;;;;
2020/12/02 00:21:12;;;;;;;12.43;9.13;;;8.4;99.9;;;;;;;;;
2020/12/02 00:21:27;;;;;;;12.43;9.13;;;8.4;99.9;;;;;;;;;
2020/12/02 00:21:42;;;;;;;15.1;9.73;;;8.4;99.9;;;;;;;;;
2020/12/02 00:21:58;;;;;;;15.1;9.73;;;8.4;99.9;;;;;;;;;
2020/12/02 00:22:01;;;;;;;15.1;9.73;;;8.4;99.9;;;;;;;;;
2020/12/02 00:22:18;;;;;;;15.1;9.73;;;8.4;99.9;;;;;;;;;
2020/12/02 00:22:18;;;;;;;15.1;9.73;;;8.4;99.9;;;;;;;;;
2020/12/02 00:22:28;;;;;;;15.1;9.73;;;8.4;99.9;;;;;;;;;
2020/12/02 00:22:45;;;;;;;12.23;8.9;;;8.3;99.9;;;;;;;;;
2020/12/02 00:22:59;;;;;;;12.23;8.9;;;8.3;99.9;;;;;;;;;
2020/12/02 00:23:02;;;;;;;12.23;8.9;;;8.3;99.9;;;;;;;;;
2020/12/02 00:23:09;;;;;;;12.23;8.9;;;8.3;99.9;;;;;;;;;
2020/12/02 00:23:14;;;;;;;12.23;8.9;;;8.3;99.9;;;;;;;;;
2020/12/02 00:23:25;;;;;;;12.23;8.9;;;8.3;99.9;;;;;;;;;
2020/12/02 00:23:40;;;;;;;13.97;9.47;;;8.4;99.9;;;;;;;;;
2020/12/02 00:24:02;;;;;;;13.97;9.47;;;8.4;99.9;;;;;;;;;
2020/12/02 00:24:11;;;;;;;13.97;9.47;;;8.4;99.9;;;;;;;;;
2020/12/02 00:24:11;;;;;;;13.97;9.47;;;8.4;99.9;;;;;;;;;
2020/12/02 00:24:16;;;;;;;13.97;9.47;;;8.4;99.9;;;;;;;;;
2020/12/02 00:24:33;;;;;;;13.97;9.47;;;8.4;99.9;;;;;;;;;
2020/12/02 00:24:41;;;;;;;13.2;9.37;;;8.3;99.9;;;;;;;;;
2020/12/02 00:24:57;;;;;;;13.2;9.37;;;8.3;99.9;;;;;;;;;
2020/12/02 00:25:02;;;;;;;13.2;9.37;;;8.3;99.9;;;;;;;;;
2020/12/02 00:25:12;;;;;;;13.2;9.37;;;8.3;99.9;;;;;;;;;
2020/12/02 00:25:12;;;;;;;13.2;9.37;;;8.3;99.9;;;;;;;;;
2020/12/02 00:25:28;;;;;;;13.2;9.37;;;8.3;99.9;;;;;;;;;
2020/12/02 00:25:38;;;;;;;17.47;9.17;;;8.3;99.9;;;;;;;;;
2020/12/02 00:25:53;;;;;;;17.47;9.17;;;8.3;99.9;;;;;;;;;
2020/12/02 00:26:02;;;;;;;17.47;9.17;;;8.3;99.9;;;;;;;;;
2020/12/02 00:26:14;;;;;;;17.47;9.17;;;8.3;99.9;;;;;;;;;
2020/12/02 00:26:24;;;;;;;17.47;9.17;;;8.3;99.9;;;;;;;;;
2020/12/02 00:26:29;;;;;;;17.47;9.17;;;8.3;99.9;;;;;;;;;
2020/12/02 00:26:44;;;;;;;15.8;10.57;;;8.3;99.9;;;;;;;;;
2020/12/02 00:26:55;;;;;;;15.8;10.57;;;8.3;99.9;;;;;;;;;
2020/12/02 00:27:01;;;;;;;15.8;10.57;;;8.3;99.9;;;;;;;;;
2020/12/02 00:27:10;;;;;;;15.8;10.57;;;8.3;99.9;;;;;;;;;
2020/12/02 00:27:15;;;;;;;15.8;10.57;;;8.3;99.9;;;;;;;;;
2020/12/02 00:27:25;;;;;;;15.8;10.57;;;8.3;99.9;;;;;;;;;
2020/12/02 00:27:41;;;;;;;17.37;10.17;;;8.3;99.9;;;;;;;;;
2020/12/02 00:27:51;;;;;;;17.37;10.17;;;8.3;99.9;;;;;;;;;
2020/12/02 00:28:02;;;;;;;17.37;10.17;;;8.3;99.9;;;;;;;;;
2020/12/02 00:28:06;;;;;;;17.37;10.17;;;8.3;99.9;;;;;;;;;
2020/12/02 00:28:16;;;;;;;17.37;10.17;;;8.3;99.9;;;;;;;;;
2020/12/02 00:28:27;;;;;;;17.37;10.17;;;8.3;99.9;;;;;;;;;
2020/12/02 00:28:42;;;;;;;15.23;9.63;;;8.2;99.9;;;;;;;;;
2020/12/02 00:28:57;;;;;;;15.23;9.63;;;8.2;99.9;;;;;;;;;
2020/12/02 00:29:02;;;;;;;15.23;9.63;;;8.2;99.9;;;;;;;;;
2020/12/02 00:29:08;;;;;;;15.23;9.63;;;8.2;99.9;;;;;;;;;
2020/12/02 00:29:18;;;;;;;15.23;9.63;;;8.2;99.9;;;;;;;;;
2020/12/02 00:29:28;;;;;;;15.23;9.63;;;8.2;99.9;;;;;;;;;
2020/12/02 00:29:38;;;;;;;18;10;;;8.3;99.9;;;;;;;;;
2020/12/02 00:29:54;;;;;;;18;10;;;8.3;99.9;;;;;;;;;
2020/12/02 00:30:02;;;;;;;18;10;;;8.3;99.9;;;;;;;;;
2020/12/02 00:30:04;;;;;;;18;10;;;8.3;99.9;;;;;;;;;
2020/12/02 00:30:14;;;;;;;18;10;;;8.3;99.9;;;;;;;;;
2020/12/02 00:30:30;;;;;;;18;10;;;8.3;99.9;;;;;;;;;
2020/12/02 00:30:40;;;;;;;15.2;9.6;;;8.2;99.9;;;;;;;;;
2020/12/02 00:30:55;;;;;;;15.2;9.6;;;8.2;99.9;;;;;;;;;
2020/12/02 00:31:02;;;;;;;15.2;9.6;;;8.2;99.9;;;;;;;;;
2020/12/02 00:31:11;;;;;;;15.2;9.6;;;8.2;99.9;;;;;;;;;
2020/12/02 00:31:16;;;;;;;15.2;9.6;;;8.2;99.9;;;;;;;;;
2020/12/02 00:31:31;;;;;;;15.2;9.6;;;8.2;99.9;;;;;;;;;
2020/12/02 00:31:41;;;;;;;16.53;10;;;8.2;99.9;;;;;;;;;
2020/12/02 00:31:52;;;;;;;16.53;10;;;8.2;99.9;;;;;;;;;
2020/12/02 00:32:01;;;;;;;16.53;10;;;8.2;99.9;;;;;;;;;
2020/12/02 00:32:07;;;;;;;16.53;10;;;8.2;99.9;;;;;;;;;
2020/12/02 00:32:17;;;;;;;16.53;10;;;8.2;99.9;;;;;;;;;
2020/12/02 00:32:27;;;;;;;16.53;10;;;8.2;99.9;;;;;;;;;
2020/12/02 00:32:43;;;;;;;20.43;10.57;;;8.2;99.9;;;;;;;;;
2020/12/02 00:32:53;;;;;;;20.43;10.57;;;8.2;99.9;;;;;;;;;
2020/12/02 00:33:02;;;;;;;20.43;10.57;;;8.2;99.9;;;;;;;;;
2020/12/02 00:33:08;;;;;;;20.43;10.57;;;8.2;99.9;;;;;;;;;
2020/12/02 00:33:13;;;;;;;20.43;10.57;;;8.2;99.9;;;;;;;;;
2020/12/02 00:33:29;;;;;;;20.43;10.57;;;8.2;99.9;;;;;;;;;
2020/12/02 00:33:44;;;;;;;14.9;9.93;;;8.2;99.9;;;;;;;;;
2020/12/02 00:33:54;;;;;;;14.9;9.93;;;8.2;99.9;;;;;;;;;
2020/12/02 00:34:01;;;;;;;14.9;9.93;;;8.2;99.9;;;;;;;;;
2020/12/02 00:34:05;;;;;;;14.9;9.93;;;8.2;99.9;;;;;;;;;
2020/12/02 00:34:15;;;;;;;14.9;9.93;;;8.2;99.9;;;;;;;;;
2020/12/02 00:34:35;;;;;;;14.9;9.93;;;8.2;99.9;;;;;;;;;
2020/12/02 00:34:41;;;;;;;15.5;9.83;;;8.2;99.9;;;;;;;;;
2020/12/02 00:34:56;;;;;;;15.5;9.83;;;8.2;99.9;;;;;;;;;
2020/12/02 00:35:02;;;;;;;15.5;9.83;;;8.2;99.9;;;;;;;;;
2020/12/02 00:35:06;;;;;;;15.5;9.83;;;8.2;99.9;;;;;;;;;
2020/12/02 00:35:16;;;;;;;15.5;9.83;;;8.2;99.9;;;;;;;;;
2020/12/02 00:35:27;;;;;;;15.5;9.83;;;8.2;99.9;;;;;;;;;
2020/12/02 00:35:42;;;;;;;18.07;10.8;;;8.2;99.9;;;;;;;;;
2020/12/02 00:35:57;;;;;;;18.07;10.8;;;8.2;99.9;;;;;;;;;
2020/12/02 00:36:02;;;;;;;18.07;10.8;;;8.2;99.9;;;;;;;;;
2020/12/02 00:36:08;;;;;;;18.07;10.8;;;8.2;99.9;;;;;;;;;
2020/12/02 00:36:13;;;;;;;18.07;10.8;;;8.2;99.9;;;;;;;;;
2020/12/02 00:36:28;;;;;;;18.07;10.8;;;8.2;99.9;;;;;;;;;
2020/12/02 00:36:48;;;;;;;16.47;10.43;;;8.2;99.9;;;;;;;;;
2020/12/02 00:36:54;;;;;;;16.47;10.43;;;8.2;99.9;;;;;;;;;
2020/12/02 00:37:02;;;;;;;16.47;10.43;;;8.2;99.9;;;;;;;;;
2020/12/02 00:37:09;;;;;;;16.47;10.43;;;8.2;99.9;;;;;;;;;
2020/12/02 00:37:14;;;;;;;16.47;10.43;;;8.2;99.9;;;;;;;;;
2020/12/02 00:37:29;;;;;;;16.47;10.43;;;8.2;99.9;;;;;;;;;
2020/12/02 00:37:40;;;;;;;16.47;10.43;;;8.2;99.9;;;;;;;;;
2020/12/02 00:37:55;;;;;;;16.73;9.93;;;8.2;99.9;;;;;;;;;
2020/12/02 00:38:02;;;;;;;16.73;9.93;;;8.2;99.9;;;;;;;;;
2020/12/02 00:38:10;;;;;;;16.73;9.93;;;8.2;99.9;;;;;;;;;
2020/12/02 00:38:16;;;;;;;16.73;9.93;;;8.2;99.9;;;;;;;;;
2020/12/02 00:38:26;;;;;;;16.73;9.93;;;8.2;99.9;;;;;;;;;
2020/12/02 00:38:41;;;;;;;18.7;10.9;;;8.2;99.9;;;;;;;;;
2020/12/02 00:39:01;;;;;;;18.7;10.9;;;8.2;99.9;;;;;;;;;
2020/12/02 00:39:02;;;;;;;18.7;10.9;;;8.2;99.9;;;;;;;;;
2020/12/02 00:39:09;;;;;;;18.7;10.9;;;8.2;99.9;;;;;;;;;
2020/12/02 00:39:12;;;;;;;18.7;10.9;;;8.2;99.9;;;;;;;;;
2020/12/02 00:39:27;;;;;;;18.7;10.9;;;8.2;99.9;;;;;;;;;
2020/12/02 00:39:43;;;;;;;18.1;10.7;;;8.2;99.9;;;;;;;;;
2020/12/02 00:39:53;;;;;;;18.1;10.7;;;8.2;99.9;;;;;;;;;
2020/12/02 00:40:02;;;;;;;18.1;10.7;;;8.2;99.9;;;;;;;;;
2020/12/02 00:40:08;;;;;;;18.1;10.7;;;8.2;99.9;;;;;;;;;
2020/12/02 00:40:13;;;;;;;18.1;10.7;;;8.2;99.9;;;;;;;;;
2020/12/02 00:40:29;;;;;;;18.1;10.7;;;8.2;99.9;;;;;;;;;
2020/12/02 00:40:44;;;;;;;18.1;10.7;;;8.2;99.9;;;;;;;;;
2020/12/02 00:40:54;;;;;;;15.63;10.1;;;8.2;99.9;;;;;;;;;
2020/12/02 00:41:02;;;;;;;15.63;10.1;;;8.2;99.9;;;;;;;;;
2020/12/02 00:41:15;;;;;;;15.63;10.1;;;8.2;99.9;;;;;;;;;
2020/12/02 00:41:15;;;;;;;15.63;10.1;;;8.2;99.9;;;;;;;;;
2020/12/02 00:41:25;;;;;;;15.63;10.1;;;8.2;99.9;;;;;;;;;
2020/12/02 00:41:40;;;;;;;15.63;10.1;;;8.2;99.9;;;;;;;;;
2020/12/02 00:41:56;;;;;;;16.63;10.67;;;8.1;99.9;;;;;;;;;
2020/12/02 00:42:01;;;;;;;16.63;10.67;;;8.1;99.9;;;;;;;;;
2020/12/02 00:42:06;;;;;;;16.63;10.67;;;8.1;99.9;;;;;;;;;
2020/12/02 00:42:16;;;;;;;16.63;10.67;;;8.1;99.9;;;;;;;;;
2020/12/02 00:42:26;;;;;;;16.63;10.67;;;8.1;99.9;;;;;;;;;
2020/12/02 00:42:42;;;;;;;15;10.5;;;8.1;99.9;;;;;;;;;
2020/12/02 00:42:57;;;;;;;15;10.5;;;8.1;99.9;;;;;;;;;
2020/12/02 00:43:02;;;;;;;15;10.5;;;8.1;99.9;;;;;;;;;
2020/12/02 00:43:07;;;;;;;15;10.5;;;8.1;99.9;;;;;;;;;
2020/12/02 00:43:13;;;;;;;15;10.5;;;8.1;99.9;;;;;;;;;
2020/12/02 00:43:28;;;;;;;15;10.5;;;8.1;99.9;;;;;;;;;
2020/12/02 00:43:38;;;;;;;15;10.5;;;8.1;99.9;;;;;;;;;
2020/12/02 00:43:53;;;;;;;16.7;11.5;;;8;99.9;;;;;;;;;
2020/12/02 00:44:02;;;;;;;16.7;11.5;;;8;99.9;;;;;;;;;
2020/12/02 00:44:09;;;;;;;16.7;11.5;;;8;99.9;;;;;;;;;
2020/12/02 00:44:14;;;;;;;16.7;11.5;;;8;99.9;;;;;;;;;
2020/12/02 00:44:29;;;;;;;16.7;11.5;;;8;99.9;;;;;;;;;
2020/12/02 00:44:40;;;;;;;16.7;11.5;;;8;99.9;;;;;;;;;
2020/12/02 00:44:55;;;;;;;16.53;11.37;;;8;99.9;;;;;;;;;
2020/12/02 00:45:02;;;;;;;16.53;11.37;;;8;99.9;;;;;;;;;
2020/12/02 00:45:10;;;;;;;16.53;11.37;;;8;99.9;;;;;;;;;
2020/12/02 00:45:15;;;;;;;16.53;11.37;;;8;99.9;;;;;;;;;
2020/12/02 00:45:26;;;;;;;16.53;11.37;;;8;99.9;;;;;;;;;
2020/12/02 00:45:41;;;;;;;16.53;11.37;;;8;99.9;;;;;;;;;
2020/12/02 00:45:51;;;;;;;18.67;10.97;;;7.9;99.9;;;;;;;;;
2020/12/02 00:46:02;;;;;;;18.67;10.97;;;7.9;99.9;;;;;;;;;
2020/12/02 00:46:07;;;;;;;18.67;10.97;;;7.9;99.9;;;;;;;;;
2020/12/02 00:46:12;;;;;;;18.67;10.97;;;7.9;99.9;;;;;;;;;
2020/12/02 00:46:27;;;;;;;18.67;10.97;;;7.9;99.9;;;;;;;;;
2020/12/02 00:46:43;;;;;;;18.67;10.97;;;7.9;99.9;;;;;;;;;
2020/12/02 00:46:53;;;;;;;15.03;10.3;;;7.9;99.9;;;;;;;;;
2020/12/02 00:47:02;;;;;;;15.03;10.3;;;7.9;99.9;;;;;;;;;
2020/12/02 00:47:08;;;;;;;15.03;10.3;;;7.9;99.9;;;;;;;;;
2020/12/02 00:47:13;;;;;;;15.03;10.3;;;7.9;99.9;;;;;;;;;
2020/12/02 00:47:28;;;;;;;15.03;10.3;;;7.9;99.9;;;;;;;;;
2020/12/02 00:47:39;;;;;;;15.03;10.3;;;7.9;99.9;;;;;;;;;
2020/12/02 00:47:54;;;;;;;19.5;12.3;;;7.9;99.9;;;;;;;;;
2020/12/02 00:48:02;;;;;;;19.5;12.3;;;7.9;99.9;;;;;;;;;
2020/12/02 00:48:04;;;;;;;19.5;12.3;;;7.9;99.9;;;;;;;;;
2020/12/02 00:48:15;;;;;;;19.5;12.3;;;7.9;99.9;;;;;;;;;
2020/12/02 00:48:25;;;;;;;19.5;12.3;;;7.9;99.9;;;;;;;;;
2020/12/02 00:48:40;;;;;;;19.5;12.3;;;7.9;99.9;;;;;;;;;
2020/12/02 00:48:56;;;;;;;19.73;12.73;;;7.9;99.9;;;;;;;;;
2020/12/02 00:49:01;;;;;;;19.73;12.73;;;7.9;99.9;;;;;;;;;
2020/12/02 00:49:06;;;;;;;19.73;12.73;;;7.9;99.9;;;;;;;;;
2020/12/02 00:49:16;;;;;;;19.73;12.73;;;7.9;99.9;;;;;;;;;
2020/12/02 00:49:26;;;;;;;19.73;12.73;;;7.9;99.9;;;;;;;;;
2020/12/02 00:49:42;;;;;;;19.73;12.73;;;7.9;99.9;;;;;;;;;
2020/12/02 00:49:52;;;;;;;16.83;11.57;;;7.9;99.9;;;;;;;;;
2020/12/02 00:50:02;;;;;;;16.83;11.57;;;7.9;99.9;;;;;;;;;
2020/12/02 00:50:07;;;;;;;16.83;11.57;;;7.9;99.9;;;;;;;;;
2020/12/02 00:50:12;;;;;;;16.83;11.57;;;7.9;99.9;;;;;;;;;
2020/12/02 00:50:28;;;;;;;16.83;11.57;;;7.9;99.9;;;;;;;;;
2020/12/02 00:50:38;;;;;;;16.83;11.57;;;7.9;99.9;;;;;;;;;
2020/12/02 00:50:53;;;;;;;19;12.33;;;7.9;99.9;;;;;;;;;
2020/12/02 00:51:02;;;;;;;19;12.33;;;7.9;99.9;;;;;;;;;
2020/12/02 00:51:09;;;;;;;19;12.33;;;7.9;99.9;;;;;;;;;
2020/12/02 00:51:14;;;;;;;19;12.33;;;7.9;99.9;;;;;;;;;
2020/12/02 00:51:29;;;;;;;19;12.33;;;7.9;99.9;;;;;;;;;
2020/12/02 00:51:39;;;;;;;19;12.33;;;7.9;99.9;;;;;;;;;
2020/12/02 00:51:55;;;;;;;18.7;12.27;;;7.9;99.9;;;;;;;;;
2020/12/02 00:52:01;;;;;;;18.7;12.27;;;7.9;99.9;;;;;;;;;
2020/12/02 00:52:05;;;;;;;18.7;12.27;;;7.9;99.9;;;;;;;;;
2020/12/02 00:52:15;;;;;;;18.7;12.27;;;7.9;99.9;;;;;;;;;
2020/12/02 00:52:26;;;;;;;18.7;12.27;;;7.9;99.9;;;;;;;;;
2020/12/02 00:52:41;;;;;;;18.7;12.27;;;7.9;99.9;;;;;;;;;
2020/12/02 00:52:51;;;;;;;17.73;12.23;;;8;99.9;;;;;;;;;
2020/12/02 00:53:02;;;;;;;17.73;12.23;;;8;99.9;;;;;;;;;
2020/12/02 00:53:06;;;;;;;17.73;12.23;;;8;99.9;;;;;;;;;
2020/12/02 00:53:17;;;;;;;17.73;12.23;;;8;99.9;;;;;;;;;
2020/12/02 00:53:27;;;;;;;17.73;12.23;;;8;99.9;;;;;;;;;
2020/12/02 00:53:42;;;;;;;17.73;12.23;;;8;99.9;;;;;;;;;
2020/12/02 00:53:53;;;;;;;17.5;11.27;;;7.9;99.9;;;;;;;;;
2020/12/02 00:54:01;;;;;;;17.5;11.27;;;7.9;99.9;;;;;;;;;
2020/12/02 00:54:08;;;;;;;17.5;11.27;;;7.9;99.9;;;;;;;;;
2020/12/02 00:54:13;;;;;;;17.5;11.27;;;7.9;99.9;;;;;;;;;
2020/12/02 00:54:28;;;;;;;17.5;11.27;;;7.9;99.9;;;;;;;;;
2020/12/02 00:54:41;;;;;;;17.5;11.27;;;7.9;99.9;;;;;;;;;
2020/12/02 00:54:54;;;;;;;17.97;11.67;;;7.9;99.9;;;;;;;;;
2020/12/02 00:55:02;;;;;;;17.97;11.67;;;7.9;99.9;;;;;;;;;
2020/12/02 00:55:14;;;;;;;17.97;11.67;;;7.9;99.9;;;;;;;;;
2020/12/02 00:55:14;;;;;;;17.97;11.67;;;7.9;99.9;;;;;;;;;
2020/12/02 00:55:30;;;;;;;17.97;11.67;;;7.9;99.9;;;;;;;;;
2020/12/02 00:55:40;;;;;;;17.97;11.67;;;7.9;99.9;;;;;;;;;
2020/12/02 00:55:55;;;;;;;19.87;11.97;;;7.9;99.9;;;;;;;;;
2020/12/02 00:56:02;;;;;;;19.87;11.97;;;7.9;99.9;;;;;;;;;
2020/12/02 00:56:06;;;;;;;19.87;11.97;;;7.9;99.9;;;;;;;;;
2020/12/02 00:56:16;;;;;;;19.87;11.97;;;7.9;99.9;;;;;;;;;
2020/12/02 00:56:26;;;;;;;19.87;11.97;;;7.9;99.9;;;;;;;;;
2020/12/02 00:56:41;;;;;;;19.87;11.97;;;7.9;99.9;;;;;;;;;
2020/12/02 00:56:52;;;;;;;16.1;11.63;;;7.8;99.9;;;;;;;;;
2020/12/02 00:57:02;;;;;;;16.1;11.63;;;7.8;99.9;;;;;;;;;
2020/12/02 00:57:07;;;;;;;16.1;11.63;;;7.8;99.9;;;;;;;;;
2020/12/02 00:57:12;;;;;;;16.1;11.63;;;7.8;99.9;;;;;;;;;
2020/12/02 00:57:27;;;;;;;16.1;11.63;;;7.8;99.9;;;;;;;;;
2020/12/02 00:57:43;;;;;;;16.1;11.63;;;7.8;99.9;;;;;;;;;
2020/12/02 00:57:53;;;;;;;20.37;11.97;;;7.9;99.9;;;;;;;;;
2020/12/02 00:58:02;;;;;;;20.37;11.97;;;7.9;99.9;;;;;;;;;
2020/12/02 00:58:09;;;;;;;20.37;11.97;;;7.9;99.9;;;;;;;;;
2020/12/02 00:58:14;;;;;;;20.37;11.97;;;7.9;99.9;;;;;;;;;
2020/12/02 00:58:29;;;;;;;20.37;11.97;;;7.9;99.9;;;;;;;;;
2020/12/02 00:58:39;;;;;;;20.37;11.97;;;7.9;99.9;;;;;;;;;
2020/12/02 00:58:55;;;;;;;16.7;11.73;;;7.8;99.9;;;;;;;;;
2020/12/02 00:59:01;;;;;;;16.7;11.73;;;7.8;99.9;;;;;;;;;
2020/12/02 00:59:05;;;;;;;16.7;11.73;;;7.8;99.9;;;;;;;;;
2020/12/02 00:59:15;;;;;;;16.7;11.73;;;7.8;99.9;;;;;;;;;
2020/12/02 00:59:25;;;;;;;16.7;11.73;;;7.8;99.9;;;;;;;;;
2020/12/02 00:59:41;;;;;;;16.7;11.73;;;7.8;99.9;;;;;;;;;
2020/12/02 00:59:56;;;;;;;18.97;10.4;;;7.9;99.9;;;;;;;;;
2020/12/02 01:00:02;;;;;;;18.97;10.4;;;7.9;99.9;;;;;;;;;
2020/12/02 01:00:06;;;;;;;18.97;10.4;;;7.9;99.9;;;;;;;;;
2020/12/02 01:00:17;;;;;;;18.97;10.4;;;7.9;99.9;;;;;;;;;
2020/12/02 01:00:32;;;;;;;18.97;10.4;;;7.9;99.9;;;;;;;;;
2020/12/02 01:00:52;;;;;;;19.37;12.1;;;7.9;99.9;;;;;;;;;
2020/12/02 01:00:57;;;;;;;19.37;12.1;;;7.9;99.9;;;;;;;;;
2020/12/02 01:01:02;;;;;;;19.37;12.1;;;7.9;99.9;;;;;;;;;
2020/12/02 01:01:13;;;;;;;19.37;12.1;;;7.9;99.9;;;;;;;;;
2020/12/02 01:01:18;;;;;;;19.37;12.1;;;7.9;99.9;;;;;;;;;
2020/12/02 01:01:33;;;;;;;19.37;12.1;;;7.9;99.9;;;;;;;;;
2020/12/02 01:01:38;;;;;;;19.37;12.1;;;7.9;99.9;;;;;;;;;
2020/12/02 01:01:54;;;;;;;17.47;11.3;;;7.9;99.9;;;;;;;;;
2020/12/02 01:02:02;;;;;;;17.47;11.3;;;7.9;99.9;;;;;;;;;
2020/12/02 01:02:09;;;;;;;17.47;11.3;;;7.9;99.9;;;;;;;;;
2020/12/02 01:02:19;;;;;;;17.47;11.3;;;7.9;99.9;;;;;;;;;
2020/12/02 01:02:30;;;;;;;17.47;11.3;;;7.9;99.9;;;;;;;;;
2020/12/02 01:02:45;;;;;;;17.47;11.3;;;7.9;99.9;;;;;;;;;
2020/12/02 01:03:02;;;;;;;20.83;11.57;;;8;99.9;;;;;;;;;
2020/12/02 01:03:06;;;;;;;20.83;11.57;;;8;99.9;;;;;;;;;
2020/12/02 01:03:11;;;;;;;20.83;11.57;;;8;99.9;;;;;;;;;
2020/12/02 01:03:16;;;;;;;20.83;11.57;;;8;99.9;;;;;;;;;
2020/12/02 01:03:41;;;;;;;20.83;11.57;;;8;99.9;;;;;;;;;
2020/12/02 01:03:52;;;;;;;16;10.8;;;8;99.9;;;;;;;;;
2020/12/02 01:03:52;;;;;;;16;10.8;;;8;99.9;;;;;;;;;
2020/12/02 01:04:01;;;;;;;16;10.8;;;8;99.9;;;;;;;;;
2020/12/02 01:04:12;;;;;;;16;10.8;;;8;99.9;;;;;;;;;
2020/12/02 01:04:17;;;;;;;16;10.8;;;8;99.9;;;;;;;;;
2020/12/02 01:04:43;;;;;;;16;10.8;;;8;99.9;;;;;;;;;
2020/12/02 01:04:43;;;;;;;16;10.8;;;8;99.9;;;;;;;;;
2020/12/02 01:05:02;;;;;;;18.33;11.1;;;7.9;99.9;;;;;;;;;
2020/12/02 01:05:03;;;;;;;18.33;11.1;;;7.9;99.9;;;;;;;;;
2020/12/02 01:05:19;;;;;;;18.33;11.1;;;7.9;99.9;;;;;;;;;
2020/12/02 01:05:19;;;;;;;18.33;11.1;;;7.9;99.9;;;;;;;;;
2020/12/02 01:05:30;;;;;;;18.33;11.1;;;7.9;99.9;;;;;;;;;
2020/12/02 01:05:54;;;;;;;14.37;11.43;;;8;99.9;;;;;;;;;
2020/12/02 01:06:01;;;;;;;14.37;11.43;;;8;99.9;;;;;;;;;
2020/12/02 01:06:05;;;;;;;14.37;11.43;;;8;99.9;;;;;;;;;
2020/12/02 01:06:05;;;;;;;14.37;11.43;;;8;99.9;;;;;;;;;
2020/12/02 01:06:15;;;;;;;14.37;11.43;;;8;99.9;;;;;;;;;
2020/12/02 01:06:30;;;;;;;14.37;11.43;;;8;99.9;;;;;;;;;
2020/12/02 01:06:56;;;;;;;17.07;11.17;;;7.9;99.9;;;;;;;;;
2020/12/02 01:06:56;;;;;;;17.07;11.17;;;7.9;99.9;;;;;;;;;
2020/12/02 01:07:02;;;;;;;17.07;11.17;;;7.9;99.9;;;;;;;;;
2020/12/02 01:07:16;;;;;;;17.07;11.17;;;7.9;99.9;;;;;;;;;
2020/12/02 01:07:21;;;;;;;17.07;11.17;;;7.9;99.9;;;;;;;;;
2020/12/02 01:07:32;;;;;;;17.07;11.17;;;7.9;99.9;;;;;;;;;
2020/12/02 01:07:42;;;;;;;17.07;11.17;;;7.9;99.9;;;;;;;;;
2020/12/02 01:08:01;;;;;;;17.2;11.27;;;7.9;99.9;;;;;;;;;
2020/12/02 01:08:08;;;;;;;17.2;11.27;;;7.9;99.9;;;;;;;;;
2020/12/02 01:08:13;;;;;;;17.2;11.27;;;7.9;99.9;;;;;;;;;
2020/12/02 01:08:18;;;;;;;17.2;11.27;;;7.9;99.9;;;;;;;;;
2020/12/02 01:08:28;;;;;;;17.2;11.27;;;7.9;99.9;;;;;;;;;
2020/12/02 01:08:43;;;;;;;17.2;11.27;;;7.9;99.9;;;;;;;;;
2020/12/02 01:09:01;;;;;;;15.97;10.6;;;7.9;99.9;;;;;;;;;
2020/12/02 01:09:09;;;;;;;15.97;10.6;;;7.9;99.9;;;;;;;;;
2020/12/02 01:09:09;;;;;;;15.97;10.6;;;7.9;99.9;;;;;;;;;
2020/12/02 01:09:14;;;;;;;15.97;10.6;;;7.9;99.9;;;;;;;;;
2020/12/02 01:09:35;;;;;;;15.97;10.6;;;7.9;99.9;;;;;;;;;
2020/12/02 01:09:45;;;;;;;15.97;10.6;;;7.9;99.9;;;;;;;;;
2020/12/02 01:09:55;;;;;;;14.43;10.13;;;8;99.9;;;;;;;;;
2020/12/02 01:10:02;;;;;;;14.43;10.13;;;8;99.9;;;;;;;;;
2020/12/02 01:10:26;;;;;;;14.43;10.13;;;8;99.9;;;;;;;;;
2020/12/02 01:10:31;;;;;;;14.43;10.13;;;8;99.9;;;;;;;;;
2020/12/02 01:10:31;;;;;;;14.43;10.13;;;8;99.9;;;;;;;;;
2020/12/02 01:10:41;;;;;;;14.43;10.13;;;8;99.9;;;;;;;;;
2020/12/02 01:10:57;;;;;;;15.7;10.73;;;7.9;99.9;;;;;;;;;
2020/12/02 01:11:02;;;;;;;15.7;10.73;;;7.9;99.9;;;;;;;;;
2020/12/02 01:11:12;;;;;;;15.7;10.73;;;7.9;99.9;;;;;;;;;
2020/12/02 01:11:22;;;;;;;15.7;10.73;;;7.9;99.9;;;;;;;;;
2020/12/02 01:11:27;;;;;;;15.7;10.73;;;7.9;99.9;;;;;;;;;
2020/12/02 01:11:48;;;;;;;15.7;10.73;;;7.9;99.9;;;;;;;;;
2020/12/02 01:11:58;;;;;;;17.3;11.83;;;7.9;99.9;;;;;;;;;
2020/12/02 01:12:02;;;;;;;17.3;11.83;;;7.9;99.9;;;;;;;;;
2020/12/02 01:12:08;;;;;;;17.3;11.83;;;7.9;99.9;;;;;;;;;
2020/12/02 01:12:13;;;;;;;17.3;11.83;;;7.9;99.9;;;;;;;;;
2020/12/02 01:12:44;;;;;;;17.3;11.83;;;7.9;99.9;;;;;;;;;
2020/12/02 01:12:44;;;;;;;17.3;11.83;;;7.9;99.9;;;;;;;;;
2020/12/02 01:12:54;;;;;;;16.6;10.8;;;8;99.9;;;;;;;;;
2020/12/02 01:13:01;;;;;;;16.6;10.8;;;8;99.9;;;;;;;;;
2020/12/02 01:13:15;;;;;;;16.6;10.8;;;8;99.9;;;;;;;;;
2020/12/02 01:13:15;;;;;;;16.6;10.8;;;8;99.9;;;;;;;;;
2020/12/02 01:13:25;;;;;;;16.6;10.8;;;8;99.9;;;;;;;;;
2020/12/02 01:13:40;;;;;;;16.6;10.8;;;8;99.9;;;;;;;;;
2020/12/02 01:14:01;;;;;;;16.67;11.1;;;8;99.9;;;;;;;;;
2020/12/02 01:14:02;;;;;;;16.67;11.1;;;8;99.9;;;;;;;;;
2020/12/02 01:14:11;;;;;;;16.67;11.1;;;8;99.9;;;;;;;;;
2020/12/02 01:14:16;;;;;;;16.67;11.1;;;8;99.9;;;;;;;;;
2020/12/02 01:14:26;;;;;;;16.67;11.1;;;8;99.9;;;;;;;;;
2020/12/02 01:14:57;;;;;;;17.03;11.03;;;8;99.9;;;;;;;;;
2020/12/02 01:14:57;;;;;;;17.03;11.03;;;8;99.9;;;;;;;;;
2020/12/02 01:15:02;;;;;;;17.03;11.03;;;8;99.9;;;;;;;;;
2020/12/02 01:15:07;;;;;;;17.03;11.03;;;8;99.9;;;;;;;;;
2020/12/02 01:15:13;;;;;;;17.03;11.03;;;8;99.9;;;;;;;;;
2020/12/02 01:15:28;;;;;;;17.03;11.03;;;8;99.9;;;;;;;;;
2020/12/02 01:15:38;;;;;;;17.03;11.03;;;8;99.9;;;;;;;;;
2020/12/02 01:15:53;;;;;;;16.77;11.3;;;8.1;99.9;;;;;;;;;
2020/12/02 01:16:01;;;;;;;16.77;11.3;;;8.1;99.9;;;;;;;;;
2020/12/02 01:16:14;;;;;;;16.77;11.3;;;8.1;99.9;;;;;;;;;
2020/12/02 01:16:19;;;;;;;16.77;11.3;;;8.1;99.9;;;;;;;;;